Time;durP1;ratioP1;P1;durP2;ratioP2;P2;SDS_P1;SDS_P2;PMS_P1;PMS_P2;Temp;Humidity;BMP_temperature;BMP_pressure;BME280_temperature;BME280_humidity;BME280_pressure;Samples;Min_cycle;Max_cycle;Signal;HPM_P1;HPM_P2
2023/05/13 04:01:26;;;;;;;5.43;4.50;;;10.80;99.90;;;;;;5437958;23;20106;-70
2023/05/13 04:03:51;;;;;;;5.63;4.40;;;10.80;99.90;;;;;;4936956;29;20495;-71
2023/05/13 04:06:17;;;;;;;4.87;4.07;;;10.80;99.90;;;;;;4935348;29;20264;-71
2023/05/13 04:08:43;;;;;;;7.53;4.50;;;10.80;99.90;;;;;;4937484;29;20035;-71
2023/05/13 04:11:08;;;;;;;4.60;4.13;;;10.80;99.90;;;;;;4944573;29;20480;-70
2023/05/13 04:13:34;;;;;;;5.00;4.10;;;10.80;99.90;;;;;;4957042;29;20039;-71
2023/05/13 04:16:00;;;;;;;6.57;4.00;;;10.90;99.90;;;;;;4956113;29;20395;-71
2023/05/13 04:18:26;;;;;;;5.53;3.70;;;10.90;99.90;;;;;;4955698;29;20122;-71
2023/05/13 04:20:51;;;;;;;7.23;4.23;;;10.90;99.90;;;;;;4955346;28;20030;-71
2023/05/13 04:23:17;;;;;;;5.53;4.13;;;11.00;99.90;;;;;;4955767;29;20063;-70
2023/05/13 04:25:42;;;;;;;6.07;3.63;;;11.00;99.90;;;;;;4956779;29;20027;-72
2023/05/13 04:28:08;;;;;;;6.40;3.80;;;11.00;99.90;;;;;;4956817;29;20369;-70
2023/05/13 04:30:34;;;;;;;5.07;4.03;;;11.00;99.90;;;;;;4956742;28;20495;-72
2023/05/13 04:33:00;;;;;;;6.70;4.18;;;11.10;99.90;;;;;;4954449;28;20031;-72
2023/05/13 04:35:26;;;;;;;7.10;3.67;;;11.10;99.90;;;;;;4956644;29;20030;-71
2023/05/13 04:37:51;;;;;;;4.47;3.57;;;11.10;99.90;;;;;;4956598;29;20035;-71
2023/05/13 04:40:17;;;;;;;6.30;4.10;;;11.10;99.90;;;;;;4956694;28;20028;-71
2023/05/13 04:42:42;;;;;;;6.17;4.50;;;11.10;99.90;;;;;;4955271;29;20369;-71
2023/05/13 04:45:08;;;;;;;7.40;4.27;;;11.20;99.90;;;;;;4956435;29;20389;-71
2023/05/13 04:47:34;;;;;;;4.70;3.88;;;11.10;99.90;;;;;;4955623;29;20049;-71
2023/05/13 04:50:00;;;;;;;8.70;3.97;;;11.20;99.90;;;;;;4956942;29;20488;-71
2023/05/13 04:52:26;;;;;;;;;;;11.20;99.90;;;;;;4955868;28;20075;-71
2023/05/13 04:54:51;;;;;;;7.50;4.07;;;11.30;99.90;;;;;;4957014;29;20323;-71
2023/05/13 04:57:17;;;;;;;5.47;3.60;;;11.40;99.90;;;;;;4956996;29;20035;-71
2023/05/13 04:59:42;;;;;;;5.47;3.73;;;11.40;99.90;;;;;;4956315;29;20031;-70
2023/05/13 05:02:08;;;;;;;4.87;3.50;;;11.40;99.90;;;;;;4957047;28;20039;-71
2023/05/13 05:04:33;;;;;;;5.43;3.47;;;11.40;99.90;;;;;;4956886;29;20476;-71
2023/05/13 05:06:59;;;;;;;5.70;3.53;;;11.40;99.90;;;;;;4956756;29;20484;-71
2023/05/13 05:09:24;;;;;;;5.80;3.50;;;11.40;99.90;;;;;;4957453;29;20495;-70
2023/05/13 05:11:50;;;;;;;5.60;3.93;;;11.40;99.90;;;;;;4957343;28;20026;-71
2023/05/13 05:14:17;;;;;;;6.87;3.90;;;11.40;99.90;;;;;;4956770;29;20023;-70
2023/05/13 05:16:42;;;;;;;7.57;3.78;;;11.40;99.90;;;;;;4957199;29;20034;-71
2023/05/13 05:19:08;;;;;;;4.20;3.50;;;11.50;99.90;;;;;;4956242;29;20049;-70
2023/05/13 05:21:33;;;;;;;6.67;4.90;;;11.50;99.90;;;;;;4956462;28;20034;-71
2023/05/13 05:24:00;;;;;;;4.73;3.90;;;11.50;99.90;;;;;;4956985;29;20035;-70
2023/05/13 05:26:26;;;;;;;6.10;3.72;;;11.50;99.90;;;;;;4957068;28;20047;-71
2023/05/13 05:28:52;;;;;;;5.57;3.83;;;11.50;99.90;;;;;;4956554;29;20070;-71
2023/05/13 05:31:17;;;;;;;8.20;3.55;;;11.50;99.90;;;;;;4954481;28;20038;-72
2023/05/13 05:33:43;;;;;;;3.87;3.30;;;11.60;99.90;;;;;;4955647;29;20039;-71
2023/05/13 05:36:09;;;;;;;5.70;3.25;;;11.60;99.90;;;;;;4955491;29;20267;-71
2023/05/13 05:38:34;;;;;;;4.10;3.45;;;11.60;99.90;;;;;;4955725;29;20107;-70
2023/05/13 05:41:00;;;;;;;5.05;3.17;;;11.70;99.90;;;;;;4955387;28;20547;-70
2023/05/13 05:43:25;;;;;;;4.30;3.13;;;11.80;99.90;;;;;;4954604;29;20028;-71
2023/05/13 05:45:51;;;;;;;6.73;3.27;;;11.80;99.90;;;;;;4956138;28;20042;-69
2023/05/13 05:48:16;;;;;;;5.40;2.60;;;11.90;99.90;;;;;;4955557;29;20027;-71
2023/05/13 05:50:42;;;;;;;3.00;2.70;;;12.10;99.90;;;;;;4954420;28;20037;-70
2023/05/13 05:53:07;;;;;;;3.03;2.50;;;12.20;99.90;;;;;;4955267;29;20113;-70
2023/05/13 05:55:34;;;;;;;3.10;2.80;;;12.30;99.90;;;;;;4955527;29;20053;-70
2023/05/13 05:58:04;;;;;;;4.73;2.47;;;12.30;99.90;;;;;;4955637;29;20094;-71
2023/05/13 06:00:30;;;;;;;5.35;3.25;;;12.40;99.90;;;;;;4955184;28;20106;-71
2023/05/13 06:02:56;;;;;;;3.72;2.78;;;12.50;99.90;;;;;;4955388;28;20511;-70
2023/05/13 06:05:21;;;;;;;3.30;2.55;;;12.50;99.90;;;;;;4955263;28;20063;-71
2023/05/13 06:07:47;;;;;;;3.70;2.95;;;12.60;99.90;;;;;;4955619;29;20027;-70
2023/05/13 06:10:12;;;;;;;4.63;3.00;;;12.70;99.90;;;;;;4953974;28;20027;-70
2023/05/13 06:12:39;;;;;;;3.57;2.90;;;12.70;99.90;;;;;;4955374;29;20031;-71
2023/05/13 06:15:09;;;;;;;4.90;2.65;;;12.80;99.90;;;;;;4953960;29;20037;-71
2023/05/13 06:17:35;;;;;;;4.25;2.45;;;12.80;99.90;;;;;;4954076;29;20038;-71
2023/05/13 06:20:01;;;;;;;6.30;2.63;;;12.90;99.90;;;;;;4954853;28;20031;-71
2023/05/13 06:22:26;;;;;;;6.10;3.00;;;13.00;99.90;;;;;;4955166;28;20035;-71
2023/05/13 06:24:52;;;;;;;4.00;2.77;;;13.10;99.90;;;;;;4955407;29;20031;-71
2023/05/13 06:27:17;;;;;;;3.60;2.60;;;13.20;99.90;;;;;;4955495;29;20031;-71
2023/05/13 06:29:43;;;;;;;3.00;2.70;;;13.30;99.90;;;;;;4955193;29;20340;-71
2023/05/13 06:32:08;;;;;;;4.70;2.50;;;13.20;99.90;;;;;;4953844;28;20133;-72
2023/05/13 06:34:34;;;;;;;3.63;2.60;;;13.30;99.90;;;;;;4954178;29;20484;-71
2023/05/13 06:36:59;;;;;;;5.80;3.00;;;13.30;99.90;;;;;;4956202;29;20366;-71
2023/05/13 06:39:25;;;;;;;3.37;2.37;;;13.40;99.90;;;;;;4954483;29;20027;-71
2023/05/13 06:41:53;;;;;;;3.70;2.87;;;13.40;99.90;;;;;;4954953;28;20031;-71
2023/05/13 06:44:19;;;;;;;2.70;2.47;;;13.50;99.90;;;;;;4954182;29;20491;-71
2023/05/13 06:46:45;;;;;;;3.08;2.47;;;13.50;99.90;;;;;;4956090;28;20028;-71
2023/05/13 06:49:10;;;;;;;3.65;2.45;;;13.60;99.90;;;;;;4955387;28;20488;-71
2023/05/13 06:51:36;;;;;;;5.67;2.70;;;13.70;99.90;;;;;;4957176;28;20085;-71
2023/05/13 06:54:02;;;;;;;8.13;3.55;;;13.70;99.90;;;;;;4959579;28;20031;-71
2023/05/13 06:56:29;;;;;;;3.43;2.50;;;13.80;99.90;;;;;;4956189;28;20031;-71
2023/05/13 06:58:54;;;;;;;3.33;2.40;;;13.90;99.90;;;;;;4958396;28;20162;-71
2023/05/13 07:01:20;;;;;;;4.50;2.60;;;14.00;99.90;;;;;;4956835;29;20123;-71
2023/05/13 07:03:45;;;;;;;4.37;2.47;;;14.10;99.90;;;;;;4957577;29;20054;-71
2023/05/13 07:06:11;;;;;;;4.67;2.37;;;14.10;99.90;;;;;;4950809;29;20465;-71
2023/05/13 07:08:37;;;;;;;4.45;2.70;;;14.20;99.90;;;;;;4953910;29;20031;-71
2023/05/13 07:11:03;;;;;;;4.50;2.75;;;14.30;99.90;;;;;;4957093;28;20485;-73
2023/05/13 07:13:29;;;;;;;3.83;2.60;;;14.30;99.90;;;;;;4957586;29;20034;-71
2023/05/13 07:15:56;;;;;;;;;;;14.30;99.90;;;;;;4959044;28;20023;-72
2023/05/13 07:18:22;;;;;;;5.00;2.33;;;14.30;99.90;;;;;;4959306;29;19910;-71
2023/05/13 07:20:48;;;;;;;6.95;2.45;;;14.30;99.90;;;;;;4956603;28;20071;-71
2023/05/13 07:23:13;;;;;;;3.80;2.50;;;14.40;99.90;;;;;;4956970;29;20024;-70
2023/05/13 07:25:39;;;;;;;3.27;2.60;;;14.50;99.90;;;;;;4958203;29;20054;-70
2023/05/13 07:28:04;;;;;;;3.63;2.85;;;14.50;99.90;;;;;;4956574;29;20055;-72
2023/05/13 07:30:30;;;;;;;4.13;2.70;;;14.70;99.90;;;;;;4952513;28;20031;-71
2023/05/13 07:32:55;;;;;;;6.13;2.70;;;14.60;99.90;;;;;;4953820;29;20640;-71
2023/05/13 07:35:21;;;;;;;3.43;2.50;;;14.70;99.90;;;;;;4957785;28;20109;-71
2023/05/13 07:37:46;;;;;;;3.40;2.63;;;14.70;99.90;;;;;;4957731;28;20027;-71
2023/05/13 07:40:12;;;;;;;2.87;2.57;;;14.80;99.90;;;;;;4956730;28;20023;-71
2023/05/13 07:42:39;;;;;;;3.35;2.60;;;14.80;99.90;;;;;;4957610;28;20053;-70
2023/05/13 07:45:06;;;;;;;3.97;2.80;;;14.90;99.90;;;;;;4957926;28;20036;-71
2023/05/13 07:47:32;;;;;;;3.20;2.35;;;15.10;99.90;;;;;;4957571;28;20483;-71
2023/05/13 07:49:58;;;;;;;4.43;2.50;;;15.30;99.90;;;;;;4957908;28;20373;-70
2023/05/13 07:52:24;;;;;;;5.15;2.60;;;15.50;99.90;;;;;;4957873;29;20038;-72
2023/05/13 07:54:49;;;;;;;4.03;2.75;;;15.50;99.90;;;;;;4958662;28;20050;-69
2023/05/13 07:57:15;;;;;;;2.90;2.60;;;15.30;99.90;;;;;;4958028;29;20032;-70
2023/05/13 07:59:40;;;;;;;5.77;2.57;;;15.30;99.90;;;;;;4957962;29;20085;-69
2023/05/13 08:02:07;;;;;;;2.87;2.53;;;15.60;99.90;;;;;;4958506;29;20282;-73
2023/05/13 08:04:33;;;;;;;9.63;3.47;;;16.00;99.90;;;;;;4956491;29;20027;-73
2023/05/13 08:07:00;;;;;;;4.50;2.83;;;16.30;99.90;;;;;;4957799;28;20469;-72
2023/05/13 08:09:26;;;;;;;2.60;2.33;;;16.40;99.90;;;;;;4957599;28;20035;-73
2023/05/13 08:11:51;;;;;;;3.58;2.58;;;16.40;99.90;;;;;;4957768;28;20064;-72
2023/05/13 08:14:20;;;;;;;4.68;2.72;;;16.40;99.90;;;;;;4956015;29;20036;-73
2023/05/13 08:16:46;;;;;;;4.20;2.45;;;16.30;99.90;;;;;;4956159;29;20019;-71
2023/05/13 08:19:15;;;;;;;5.50;2.47;;;16.20;99.90;;;;;;4958025;29;20086;-72
2023/05/13 08:21:40;;;;;;;4.32;3.13;;;16.10;99.90;;;;;;4957071;28;20031;-72
2023/05/13 08:24:06;;;;;;;6.88;3.17;;;16.00;99.90;;;;;;4954063;29;20485;-73
2023/05/13 08:26:32;;;;;;;3.95;2.80;;;15.90;99.90;;;;;;4942929;29;20047;-72
2023/05/13 08:28:58;;;;;;;5.20;3.58;;;15.70;99.90;;;;;;4957903;28;20027;-73
2023/05/13 08:31:24;;;;;;;6.32;3.10;;;15.70;99.90;;;;;;4957629;28;20126;-73
2023/05/13 08:33:52;;;;;;;2.92;2.53;;;15.80;99.90;;;;;;4955917;29;20559;-71
2023/05/13 08:36:18;;;;;;;3.33;2.38;;;15.70;99.90;;;;;;4949455;28;20028;-72
2023/05/13 08:38:44;;;;;;;3.70;2.60;;;15.70;99.90;;;;;;4937646;29;20596;-71
2023/05/13 08:41:14;;;;;;;6.78;2.85;;;15.70;99.90;;;;;;4936354;29;20051;-70
2023/05/13 08:43:43;;;;;;;3.92;2.83;;;15.90;99.90;;;;;;4938211;29;20056;-72
2023/05/13 08:46:10;;;;;;;3.67;2.50;;;16.00;99.90;;;;;;4937917;29;20477;-72
2023/05/13 08:48:37;;;;;;;5.07;2.70;;;16.10;99.90;;;;;;4937887;29;20027;-74
2023/05/13 08:51:03;;;;;;;3.90;2.30;;;16.20;99.90;;;;;;4937290;29;20122;-73
2023/05/13 08:53:30;;;;;;;5.75;2.38;;;16.30;99.90;;;;;;4936570;29;20043;-72
2023/05/13 08:55:56;;;;;;;3.22;2.70;;;16.50;99.90;;;;;;4936587;29;20034;-75
2023/05/13 08:58:23;;;;;;;3.63;2.70;;;16.80;99.90;;;;;;4952725;29;20023;-74
2023/05/13 09:00:50;;;;;;;5.22;2.70;;;17.00;99.90;;;;;;4952442;28;20036;-74
2023/05/13 09:03:17;;;;;;;3.03;2.45;;;17.10;99.90;;;;;;4951602;29;20031;-74
2023/05/13 09:05:43;;;;;;;4.20;2.60;;;17.30;99.90;;;;;;4954277;29;20493;-71
2023/05/13 09:08:08;;;;;;;4.50;2.42;;;17.40;99.90;;;;;;4954806;29;20020;-71
2023/05/13 09:10:35;;;;;;;3.15;2.40;;;17.80;99.90;;;;;;4954907;28;20027;-73
2023/05/13 09:13:01;;;;;;;3.70;1.95;;;18.10;99.90;;;;;;4954767;29;20024;-72
2023/05/13 09:15:27;;;;;;;5.13;2.83;;;18.40;99.90;;;;;;4954616;29;20507;-69
2023/05/13 09:18:03;;;;;;;;;;;18.90;99.90;;;;;;4956355;28;20031;-71
2023/05/13 09:20:29;;;;;;;4.50;2.22;;;19.30;99.90;;;;;;4955366;28;20402;-69
2023/05/13 09:22:59;;;;;;;3.95;2.25;;;19.50;99.30;;;;;;4956406;29;20031;-69
2023/05/13 09:25:25;;;;;;;3.83;2.17;;;19.70;99.00;;;;;;4956035;28;20499;-70
2023/05/13 09:27:51;;;;;;;;;;;19.90;98.70;;;;;;4955008;29;20042;-70
2023/05/13 09:30:19;;;;;;;4.63;2.50;;;20.00;98.10;;;;;;4954419;28;19906;-69
2023/05/13 09:33:09;;;;;;;2.78;2.40;;;19.90;98.30;;;;;;4955539;28;20066;-68
2023/05/13 09:35:37;;;;;;;4.68;2.00;;;19.60;98.10;;;;;;4953504;28;20035;-69
2023/05/13 09:38:17;;;;;;;3.17;2.05;;;19.40;98.80;;;;;;4936399;29;20171;-70
2023/05/13 09:40:57;;;;;;;2.60;2.33;;;19.10;98.70;;;;;;4934990;29;20097;-70
2023/05/13 09:43:25;;;;;;;4.05;2.00;;;18.90;99.10;;;;;;4935141;29;20125;-71
2023/05/13 09:45:56;;;;;;;2.63;1.85;;;18.70;99.60;;;;;;4936386;29;20024;-70
2023/05/13 09:48:26;;;;;;;3.88;2.03;;;18.40;99.50;;;;;;4935439;29;20073;-70
2023/05/13 09:50:52;;;;;;;5.47;2.20;;;18.70;99.50;;;;;;4934915;29;20032;-69
2023/05/13 09:53:21;;;;;;;2.22;1.48;;;19.10;99.10;;;;;;4934901;29;20023;-70
2023/05/13 09:55:56;;;;;;;2.28;1.50;;;19.40;98.20;;;;;;4934973;29;20066;-69
2023/05/13 09:58:23;;;;;;;2.55;1.60;;;19.80;96.60;;;;;;4936143;29;20124;-69
2023/05/13 10:00:51;;;;;;;2.05;1.60;;;19.50;96.60;;;;;;4934650;29;20063;-69
2023/05/13 10:03:16;;;;;;;2.30;1.60;;;19.50;96.60;;;;;;4934773;29;20051;-69
2023/05/13 10:05:43;;;;;;;4.63;1.50;;;19.40;95.90;;;;;;4935878;29;20400;-69
2023/05/13 10:08:11;;;;;;;3.60;1.90;;;19.60;96.30;;;;;;4934716;29;20039;-71
2023/05/13 10:10:38;;;;;;;2.90;1.80;;;19.80;96.30;;;;;;4943071;28;20102;-71
2023/05/13 10:13:12;;;;;;;4.82;1.70;;;19.70;96.00;;;;;;4951040;29;20027;-69
2023/05/13 10:15:50;;;;;;;3.85;2.00;;;19.80;96.20;;;;;;4950654;29;20051;-70
2023/05/13 10:18:16;;;;;;;1.75;1.63;;;20.10;96.00;;;;;;4935220;29;20024;-70
2023/05/13 10:20:43;;;;;;;3.88;2.28;;;20.50;95.80;;;;;;4943799;29;20028;-70
2023/05/13 10:23:08;;;;;;;;;;;20.70;95.30;;;;;;4954580;28;20025;-70
2023/05/13 10:25:34;;;;;;;2.20;1.77;;;20.70;95.40;;;;;;4954965;29;20001;-73
2023/05/13 10:28:04;;;;;;;3.58;1.90;;;20.40;95.70;;;;;;4947005;28;20054;-73
2023/05/13 10:30:31;;;;;;;2.38;1.80;;;20.10;95.70;;;;;;4940178;29;20032;-75
2023/05/13 10:32:58;;;;;;;2.33;1.50;;;20.20;95.90;;;;;;4941690;29;20038;-73
2023/05/13 10:35:28;;;;;;;2.30;1.63;;;20.20;95.50;;;;;;4940724;29;20532;-73
2023/05/13 10:38:16;;;;;;;5.13;1.65;;;20.50;95.20;;;;;;4958999;28;20148;-73
2023/05/13 10:40:56;;;;;;;2.28;1.63;;;20.30;95.10;;;;;;4959138;28;20026;-72
2023/05/13 10:43:27;;;;;;;1.80;1.50;;;20.50;95.40;;;;;;4958668;29;20442;-73
2023/05/13 10:46:06;;;;;;;2.45;1.77;;;20.20;95.20;;;;;;4959687;28;20077;-73
2023/05/13 10:48:42;;;;;;;4.05;1.50;;;20.00;95.70;;;;;;4961473;28;20102;-72
2023/05/13 10:51:08;;;;;;;2.63;1.65;;;19.90;95.60;;;;;;4958385;28;20019;-74
2023/05/13 10:53:47;;;;;;;2.28;1.63;;;19.30;96.00;;;;;;4959886;29;20035;-72
2023/05/13 10:56:12;;;;;;;2.55;1.77;;;19.10;96.20;;;;;;4959860;28;20364;-72
2023/05/13 10:58:38;;;;;;;2.65;1.60;;;19.00;97.30;;;;;;4959403;29;20026;-74
2023/05/13 11:01:15;;;;;;;3.42;1.50;;;19.20;96.20;;;;;;4958867;28;20092;-75
2023/05/13 11:03:53;;;;;;;4.72;1.50;;;19.00;96.60;;;;;;4959083;29;20050;-74
2023/05/13 11:06:20;;;;;;;2.03;1.50;;;18.90;96.50;;;;;;4951948;28;20032;-72
2023/05/13 11:08:48;;;;;;;2.28;1.63;;;18.50;96.90;;;;;;4940592;29;20028;-72
2023/05/13 11:11:32;;;;;;;2.05;1.70;;;18.30;97.30;;;;;;4939940;29;20027;-72
2023/05/13 11:14:17;;;;;;;3.17;1.65;;;18.30;97.90;;;;;;4940425;29;20043;-69
2023/05/13 11:17:05;;;;;;;2.42;1.98;;;18.50;97.90;;;;;;4944785;29;20027;-71
2023/05/13 11:19:37;;;;;;;4.65;2.28;;;18.40;97.90;;;;;;4960022;28;20114;-74
2023/05/13 11:22:20;;;;;;;4.20;1.92;;;18.50;98.20;;;;;;4959199;28;20429;-74
2023/05/13 11:25:07;;;;;;;3.00;1.63;;;18.60;98.20;;;;;;4939258;29;20094;-75
2023/05/13 11:27:42;;;;;;;2.58;1.75;;;18.60;97.70;;;;;;4953365;29;20400;-74
2023/05/13 11:30:22;;;;;;;2.58;1.80;;;18.40;97.60;;;;;;4938010;29;20027;-75
2023/05/13 11:32:52;;;;;;;2.25;1.80;;;18.30;97.90;;;;;;4945449;29;20461;-74
2023/05/13 11:35:33;;;;;;;3.55;1.77;;;18.20;98.00;;;;;;4956704;29;20117;-74
2023/05/13 11:38:00;;;;;;;3.25;1.55;;;18.10;98.30;;;;;;4956020;29;20039;-74
2023/05/13 11:40:31;;;;;;;2.35;1.85;;;18.10;98.60;;;;;;4956185;28;20023;-74
2023/05/13 11:42:57;;;;;;;7.20;1.80;;;18.20;98.70;;;;;;4956315;28;20101;-74
2023/05/13 11:45:24;;;;;;;4.45;1.63;;;18.40;98.50;;;;;;4957040;29;20477;-72
2023/05/13 11:47:51;;;;;;;2.63;1.88;;;18.50;98.50;;;;;;4959376;29;20027;-70
2023/05/13 11:50:25;;;;;;;2.55;1.77;;;18.70;97.90;;;;;;4959250;28;20432;-70
2023/05/13 11:52:52;;;;;;;2.35;1.67;;;18.80;97.90;;;;;;4960156;28;20114;-71
2023/05/13 11:55:28;;;;;;;2.85;1.60;;;19.10;97.20;;;;;;4960691;28;20027;-71
2023/05/13 11:57:54;;;;;;;3.00;1.75;;;19.10;96.60;;;;;;4959459;29;20416;-69
2023/05/13 12:00:46;;;;;;;1.88;1.67;;;19.10;97.10;;;;;;4961681;28;20388;-70
2023/05/13 12:03:12;;;;;;;3.30;1.85;;;19.10;96.60;;;;;;4954399;29;20028;-71
2023/05/13 12:05:38;;;;;;;2.78;1.80;;;19.10;96.70;;;;;;4959388;28;20031;-71
2023/05/13 12:08:08;;;;;;;2.15;1.65;;;18.90;97.00;;;;;;4960869;29;20035;-70
2023/05/13 12:10:34;;;;;;;2.03;1.42;;;19.20;96.60;;;;;;4962131;28;20050;-72
2023/05/13 12:13:00;;;;;;;2.30;1.95;;;19.10;96.40;;;;;;4961944;28;20508;-73
2023/05/13 12:15:26;;;;;;;2.22;1.70;;;19.30;96.90;;;;;;4959182;28;20031;-70
2023/05/13 12:17:52;;;;;;;;;;;19.30;96.80;;;;;;4958894;28;20529;-69
2023/05/13 12:20:19;;;;;;;3.50;2.00;;;19.50;96.50;;;;;;4958661;28;19946;-70
2023/05/13 12:22:45;;;;;;;3.67;2.15;;;19.50;96.10;;;;;;4958246;28;20024;-71
2023/05/13 12:25:46;;;;;;;3.00;2.10;;;19.30;96.50;;;;;;4958144;28;20528;-69
2023/05/13 12:28:20;;;;;;;6.82;3.72;;;19.20;96.70;;;;;;4958835;28;20023;-71
2023/05/13 12:31:02;;;;;;;3.60;1.80;;;19.40;96.60;;;;;;4956591;28;20143;-72
2023/05/13 12:33:32;;;;;;;3.33;2.00;;;19.50;96.20;;;;;;4957049;28;20050;-72
2023/05/13 12:36:24;;;;;;;3.75;1.80;;;19.60;96.70;;;;;;4955173;29;20023;-73
2023/05/13 12:39:00;;;;;;;2.67;2.00;;;19.90;96.20;;;;;;4957534;28;20098;-72
2023/05/13 12:41:50;;;;;;;2.97;2.00;;;20.00;96.00;;;;;;4955763;29;20446;-73
2023/05/13 12:44:16;;;;;;;3.38;2.03;;;20.10;96.10;;;;;;4955450;29;20062;-71
2023/05/13 12:46:52;;;;;;;4.60;1.98;;;20.20;96.30;;;;;;4956280;29;20400;-71
2023/05/13 12:49:18;;;;;;;3.47;2.33;;;20.20;96.00;;;;;;4956367;28;20031;-71
2023/05/13 12:51:44;;;;;;;2.38;2.10;;;20.50;96.10;;;;;;4954540;29;20038;-71
2023/05/13 12:54:10;;;;;;;3.83;2.33;;;20.70;95.80;;;;;;4953957;28;20090;-74
2023/05/13 12:56:38;;;;;;;6.25;2.30;;;20.60;95.60;;;;;;4956833;29;20024;-72
2023/05/13 12:59:04;;;;;;;6.15;2.15;;;20.70;95.70;;;;;;4957030;28;20030;-71
2023/05/13 13:01:30;;;;;;;4.22;2.60;;;20.80;95.40;;;;;;4954634;29;20031;-72
2023/05/13 13:03:56;;;;;;;3.00;1.90;;;20.70;95.40;;;;;;4955889;28;20043;-72
2023/05/13 13:06:21;;;;;;;6.63;2.47;;;20.40;95.60;;;;;;4956142;29;20027;-71
2023/05/13 13:08:47;;;;;;;5.32;2.75;;;20.50;95.40;;;;;;4954789;29;20030;-71
2023/05/13 13:11:17;;;;;;;5.10;2.63;;;20.40;95.70;;;;;;4954562;28;20042;-72
2023/05/13 13:13:43;;;;;;;3.08;2.40;;;20.50;95.80;;;;;;4955692;29;20118;-69
2023/05/13 13:16:09;;;;;;;4.30;2.33;;;20.50;96.10;;;;;;4954968;29;20030;-68
2023/05/13 13:18:35;;;;;;;3.53;1.98;;;20.50;94.90;;;;;;4956106;29;20031;-68
2023/05/13 13:21:00;;;;;;;3.10;2.17;;;20.50;94.90;;;;;;4956269;28;20388;-68
2023/05/13 13:23:26;;;;;;;3.53;2.33;;;20.60;94.90;;;;;;4955896;28;20023;-67
2023/05/13 13:25:52;;;;;;;2.30;2.00;;;20.60;95.00;;;;;;4956438;29;20502;-66
2023/05/13 13:28:17;;;;;;;3.00;1.80;;;20.60;94.50;;;;;;4956820;29;20031;-68
2023/05/13 13:30:45;;;;;;;2.78;1.95;;;20.60;94.70;;;;;;4956100;28;20035;-69
2023/05/13 13:33:15;;;;;;;6.47;2.33;;;20.60;94.60;;;;;;4954878;29;20425;-67
2023/05/13 13:35:42;;;;;;;5.55;2.75;;;20.50;94.50;;;;;;4955147;29;20514;-70
2023/05/13 13:38:08;;;;;;;4.55;2.17;;;20.20;95.00;;;;;;4955959;28;20076;-69
2023/05/13 13:40:37;;;;;;;4.20;1.90;;;20.20;95.70;;;;;;4957803;28;20019;-70
2023/05/13 13:43:04;;;;;;;4.90;2.60;;;20.20;95.60;;;;;;4957145;28;20054;-68
2023/05/13 13:45:30;;;;;;;3.60;2.33;;;20.30;95.70;;;;;;4956912;28;20035;-69
2023/05/13 13:47:55;;;;;;;2.40;2.00;;;20.30;95.20;;;;;;4955767;28;20023;-67
2023/05/13 13:50:21;;;;;;;4.40;2.90;;;20.10;94.80;;;;;;4956115;28;20377;-67
2023/05/13 13:52:47;;;;;;;3.42;2.00;;;20.00;95.30;;;;;;4956807;29;20027;-71
2023/05/13 13:55:13;;;;;;;3.35;2.33;;;20.10;95.10;;;;;;4956617;29;20039;-68
2023/05/13 13:57:39;;;;;;;5.22;2.60;;;20.30;94.80;;;;;;4954560;29;20074;-71
2023/05/13 14:00:06;;;;;;;5.38;2.13;;;20.40;94.20;;;;;;4956793;29;20383;-70
2023/05/13 14:02:31;;;;;;;4.43;2.65;;;20.50;94.40;;;;;;4955702;28;20492;-71
2023/05/13 14:04:57;;;;;;;5.65;2.72;;;20.50;94.60;;;;;;4956455;29;20081;-70
2023/05/13 14:07:22;;;;;;;8.70;2.67;;;20.30;94.50;;;;;;4956290;29;20044;-71
2023/05/13 14:09:48;;;;;;;4.20;1.80;;;20.30;94.60;;;;;;4956482;29;20121;-71
2023/05/13 14:12:14;;;;;;;2.50;2.00;;;20.20;94.60;;;;;;4957983;28;20205;-71
2023/05/13 14:14:40;;;;;;;4.97;2.50;;;20.20;94.90;;;;;;4956216;29;20079;-71
2023/05/13 14:17:05;;;;;;;5.47;2.60;;;20.40;94.80;;;;;;4957414;29;20030;-69
2023/05/13 14:19:31;;;;;;;5.45;3.53;;;20.60;94.60;;;;;;4957251;29;20074;-70
2023/05/13 14:21:56;;;;;;;3.13;2.35;;;20.50;94.80;;;;;;4957962;28;20036;-70
2023/05/13 14:24:22;;;;;;;3.97;2.17;;;20.50;94.80;;;;;;4956252;29;20035;-69
2023/05/13 14:26:47;;;;;;;3.35;2.05;;;20.00;95.00;;;;;;4958002;29;20032;-69
2023/05/13 14:29:13;;;;;;;3.30;2.10;;;19.50;95.20;;;;;;4956505;29;20126;-69
2023/05/13 14:31:39;;;;;;;3.47;2.30;;;19.30;95.30;;;;;;4956351;28;20091;-69
2023/05/13 14:34:05;;;;;;;3.72;2.72;;;19.10;95.50;;;;;;4957513;29;20031;-70
2023/05/13 14:36:31;;;;;;;;;;;18.90;96.10;;;;;;4950062;28;20051;-71
2023/05/13 14:38:57;;;;;;;2.85;2.50;;;18.80;96.50;;;;;;4937965;29;20360;-69
2023/05/13 14:41:24;;;;;;;3.28;2.22;;;18.80;96.70;;;;;;4936979;29;20042;-71
2023/05/13 14:43:50;;;;;;;3.08;2.10;;;19.00;96.70;;;;;;4935180;29;20493;-67
2023/05/13 14:46:16;;;;;;;2.67;1.65;;;19.00;96.90;;;;;;4935177;29;20408;-72
2023/05/13 14:48:42;;;;;;;2.95;2.03;;;19.10;96.80;;;;;;4937292;29;20042;-71
2023/05/13 14:51:07;;;;;;;3.58;1.90;;;19.00;97.00;;;;;;4935536;29;20031;-69
2023/05/13 14:53:33;;;;;;;4.13;1.90;;;18.90;97.00;;;;;;4935975;29;20032;-71
2023/05/13 14:55:58;;;;;;;2.88;2.13;;;18.80;97.00;;;;;;4934404;29;20098;-71
2023/05/13 14:58:24;;;;;;;2.75;2.08;;;18.80;97.30;;;;;;4934417;29;20024;-71
2023/05/13 15:00:50;;;;;;;3.60;1.95;;;18.70;97.60;;;;;;4935381;29;20122;-70
2023/05/13 15:03:15;;;;;;;3.75;2.47;;;18.70;97.30;;;;;;4936237;29;20151;-70
2023/05/13 15:05:41;;;;;;;3.70;2.40;;;18.70;97.20;;;;;;4937046;29;20078;-71
2023/05/13 15:08:10;;;;;;;2.05;1.80;;;18.70;97.60;;;;;;4954540;29;20024;-71
2023/05/13 15:10:36;;;;;;;2.58;1.80;;;18.70;97.20;;;;;;4953391;29;20408;-71
2023/05/13 15:13:01;;;;;;;2.03;1.83;;;18.70;97.50;;;;;;4953422;29;20023;-70
2023/05/13 15:15:27;;;;;;;2.07;1.70;;;18.80;97.80;;;;;;4954888;29;20298;-71
2023/05/13 15:17:52;;;;;;;2.30;1.83;;;19.00;97.40;;;;;;4955445;28;20271;-70
2023/05/13 15:20:18;;;;;;;2.38;2.00;;;19.10;96.90;;;;;;4957577;29;20086;-68
2023/05/13 15:22:43;;;;;;;3.88;2.13;;;19.10;96.80;;;;;;4960455;29;20043;-71
2023/05/13 15:25:09;;;;;;;1.95;1.75;;;19.10;96.50;;;;;;4958994;29;20034;-70
2023/05/13 15:27:35;;;;;;;2.67;1.77;;;19.20;96.70;;;;;;4957866;29;20114;-71
2023/05/13 15:30:01;;;;;;;2.78;2.00;;;19.10;97.30;;;;;;4957573;29;20393;-73
2023/05/13 15:32:26;;;;;;;1.77;1.40;;;19.20;96.90;;;;;;4956951;29;20031;-74
2023/05/13 15:34:52;;;;;;;2.50;1.92;;;19.10;96.70;;;;;;4958133;29;20204;-73
2023/05/13 15:37:18;;;;;;;1.60;1.50;;;19.10;97.00;;;;;;4958302;29;20481;-74
2023/05/13 15:39:43;;;;;;;2.75;2.08;;;19.10;96.60;;;;;;4956832;29;20503;-74
2023/05/13 15:42:09;;;;;;;2.45;1.85;;;19.10;96.10;;;;;;4956857;29;20027;-74
2023/05/13 15:44:35;;;;;;;2.10;1.67;;;19.20;95.80;;;;;;4959394;29;20140;-73
2023/05/13 15:47:04;;;;;;;4.45;2.20;;;19.00;95.80;;;;;;4964675;29;20042;-73
2023/05/13 15:49:31;;;;;;;6.28;3.25;;;19.00;96.10;;;;;;4962508;29;20027;-73
2023/05/13 15:51:57;;;;;;;2.22;1.80;;;18.90;96.10;;;;;;4964850;29;20142;-73
2023/05/13 15:54:22;;;;;;;3.47;1.90;;;18.90;96.20;;;;;;4964777;29;20027;-75
2023/05/13 15:56:48;;;;;;;1.88;1.60;;;18.90;96.20;;;;;;4958493;29;20118;-75
2023/05/13 15:59:13;;;;;;;3.97;2.80;;;18.90;96.20;;;;;;4963590;29;20023;-73
2023/05/13 16:01:40;;;;;;;2.72;1.90;;;18.80;96.50;;;;;;4962163;29;20342;-74
2023/05/13 16:04:06;;;;;;;3.08;1.83;;;18.70;96.40;;;;;;4958603;28;20023;-73
2023/05/13 16:06:32;;;;;;;3.88;1.92;;;18.60;96.70;;;;;;4958368;29;20023;-73
2023/05/13 16:09:00;;;;;;;5.63;2.42;;;18.50;96.80;;;;;;4958334;29;20124;-73
2023/05/13 16:11:26;;;;;;;3.00;2.10;;;18.60;97.10;;;;;;4958196;28;20119;-74
2023/05/13 16:13:52;;;;;;;2.83;1.70;;;18.60;97.20;;;;;;4958110;28;20120;-74
2023/05/13 16:16:19;;;;;;;3.03;1.92;;;18.80;97.20;;;;;;4955789;29;20460;-73
2023/05/13 16:18:45;;;;;;;2.10;1.73;;;19.00;97.30;;;;;;4956014;29;20026;-73
2023/05/13 16:21:11;;;;;;;3.33;1.70;;;19.00;96.90;;;;;;4958134;28;20020;-72
2023/05/13 16:23:36;;;;;;;1.88;1.63;;;19.00;96.90;;;;;;4956328;29;20536;-72
2023/05/13 16:26:02;;;;;;;4.50;2.05;;;19.10;96.90;;;;;;4955640;29;20023;-73
2023/05/13 16:28:27;;;;;;;2.28;1.52;;;19.10;96.50;;;;;;4955822;28;20035;-73
2023/05/13 16:30:54;;;;;;;2.00;1.60;;;19.00;96.70;;;;;;4956243;29;20028;-73
2023/05/13 16:33:20;;;;;;;3.88;1.75;;;19.00;97.00;;;;;;4955899;29;20032;-72
2023/05/13 16:35:45;;;;;;;4.57;2.58;;;19.00;96.90;;;;;;4956044;29;20030;-73
2023/05/13 16:38:11;;;;;;;2.30;1.67;;;19.00;97.10;;;;;;4957071;29;20031;-73
2023/05/13 16:40:36;;;;;;;5.25;3.55;;;19.00;97.10;;;;;;4955284;29;20019;-74
2023/05/13 16:43:02;;;;;;;3.70;2.35;;;18.90;97.40;;;;;;4955751;29;20039;-73
2023/05/13 16:45:27;;;;;;;4.75;2.47;;;18.80;97.80;;;;;;4956850;29;20460;-73
2023/05/13 16:47:53;;;;;;;2.33;2.10;;;18.80;98.00;;;;;;4955638;29;20032;-74
2023/05/13 16:50:19;;;;;;;3.40;2.03;;;18.80;98.00;;;;;;4955140;29;20030;-73